sensor_id;sensor_type;location;lat;lon;timestamp;P1;durP1;ratioP1;P2;durP2;ratioP2
15915;SDS011;8057;47.830;-3.870;2024-01-07T00:01:22;6.47;;;4.03;;
15915;SDS011;8057;47.830;-3.870;2024-01-07T00:05:51;5.67;;;3.93;;
15915;SDS011;8057;47.830;-3.870;2024-01-07T00:10:18;5.50;;;4.30;;
15915;SDS011;8057;47.830;-3.870;2024-01-07T00:14:47;7.73;;;5.00;;
15915;SDS011;8057;47.830;-3.870;2024-01-07T00:19:15;7.70;;;5.83;;
15915;SDS011;8057;47.830;-3.870;2024-01-07T00:23:43;8.70;;;5.37;;
15915;SDS011;8057;47.830;-3.870;2024-01-07T00:28:11;9.87;;;6.33;;
15915;SDS011;8057;47.830;-3.870;2024-01-07T00:32:40;12.00;;;7.07;;
15915;SDS011;8057;47.830;-3.870;2024-01-07T00:37:07;9.77;;;6.60;;
15915;SDS011;8057;47.830;-3.870;2024-01-07T00:41:35;9.40;;;6.10;;
15915;SDS011;8057;47.830;-3.870;2024-01-07T00:46:03;8.93;;;6.30;;
15915;SDS011;8057;47.830;-3.870;2024-01-07T00:50:32;10.77;;;6.30;;
15915;SDS011;8057;47.830;-3.870;2024-01-07T00:54:59;6.93;;;5.17;;
15915;SDS011;8057;47.830;-3.870;2024-01-07T00:59:29;7.40;;;4.83;;
15915;SDS011;8057;47.830;-3.870;2024-01-07T01:03:56;7.73;;;3.77;;
15915;SDS011;8057;47.830;-3.870;2024-01-07T01:08:26;5.67;;;3.13;;
15915;SDS011;8057;47.830;-3.870;2024-01-07T01:12:53;3.90;;;2.13;;
15915;SDS011;8057;47.830;-3.870;2024-01-07T01:17:21;3.00;;;1.63;;
15915;SDS011;8057;47.830;-3.870;2024-01-07T01:21:48;2.43;;;1.47;;
15915;SDS011;8057;47.830;-3.870;2024-01-07T01:26:18;1.50;;;1.17;;
15915;SDS011;8057;47.830;-3.870;2024-01-07T01:30:45;1.83;;;1.27;;
15915;SDS011;8057;47.830;-3.870;2024-01-07T01:35:13;3.73;;;2.17;;
15915;SDS011;8057;47.830;-3.870;2024-01-07T01:39:40;2.10;;;1.87;;
15915;SDS011;8057;47.830;-3.870;2024-01-07T01:44:10;3.90;;;2.30;;
15915;SDS011;8057;47.830;-3.870;2024-01-07T01:48:38;4.30;;;2.20;;
15915;SDS011;8057;47.830;-3.870;2024-01-07T01:53:06;4.73;;;2.10;;
15915;SDS011;8057;47.830;-3.870;2024-01-07T01:57:34;4.17;;;2.10;;
15915;SDS011;8057;47.830;-3.870;2024-01-07T02:02:05;3.80;;;2.23;;
15915;SDS011;8057;47.830;-3.870;2024-01-07T02:06:33;5.00;;;2.20;;
15915;SDS011;8057;47.830;-3.870;2024-01-07T02:11:13;4.70;;;2.20;;
15915;SDS011;8057;47.830;-3.870;2024-01-07T02:15:42;4.13;;;2.37;;
15915;SDS011;8057;47.830;-3.870;2024-01-07T02:20:12;5.50;;;2.63;;
15915;SDS011;8057;47.830;-3.870;2024-01-07T02:24:40;3.47;;;2.40;;
15915;SDS011;8057;47.830;-3.870;2024-01-07T02:29:08;7.23;;;3.10;;
15915;SDS011;8057;47.830;-3.870;2024-01-07T02:33:36;5.53;;;3.20;;
15915;SDS011;8057;47.830;-3.870;2024-01-07T02:38:04;3.43;;;3.13;;
15915;SDS011;8057;47.830;-3.870;2024-01-07T02:42:33;5.13;;;2.83;;
15915;SDS011;8057;47.830;-3.870;2024-01-07T02:47:00;5.80;;;2.90;;
15915;SDS011;8057;47.830;-3.870;2024-01-07T02:51:28;5.00;;;2.63;;
15915;SDS011;8057;47.830;-3.870;2024-01-07T02:55:55;5.57;;;3.10;;
15915;SDS011;8057;47.830;-3.870;2024-01-07T03:00:24;4.23;;;3.07;;
15915;SDS011;8057;47.830;-3.870;2024-01-07T03:04:52;3.67;;;3.33;;
15915;SDS011;8057;47.830;-3.870;2024-01-07T03:09:20;4.53;;;3.47;;
15915;SDS011;8057;47.830;-3.870;2024-01-07T03:13:48;3.97;;;2.60;;
15915;SDS011;8057;47.830;-3.870;2024-01-07T03:18:17;6.43;;;2.97;;
15915;SDS011;8057;47.830;-3.870;2024-01-07T03:22:45;5.00;;;2.87;;
15915;SDS011;8057;47.830;-3.870;2024-01-07T03:27:12;5.77;;;3.00;;
15915;SDS011;8057;47.830;-3.870;2024-01-07T03:31:40;4.17;;;2.53;;
15915;SDS011;8057;47.830;-3.870;2024-01-07T03:36:09;4.87;;;2.73;;
15915;SDS011;8057;47.830;-3.870;2024-01-07T03:40:37;4.67;;;2.70;;
15915;SDS011;8057;47.830;-3.870;2024-01-07T03:45:05;3.63;;;2.73;;
15915;SDS011;8057;47.830;-3.870;2024-01-07T03:49:35;6.97;;;3.53;;
15915;SDS011;8057;47.830;-3.870;2024-01-07T03:54:05;4.37;;;2.73;;
15915;SDS011;8057;47.830;-3.870;2024-01-07T03:58:33;5.53;;;3.23;;
15915;SDS011;8057;47.830;-3.870;2024-01-07T04:03:01;3.93;;;2.70;;
15915;SDS011;8057;47.830;-3.870;2024-01-07T04:07:28;4.50;;;2.97;;
15915;SDS011;8057;47.830;-3.870;2024-01-07T04:11:57;6.37;;;2.93;;
15915;SDS011;8057;47.830;-3.870;2024-01-07T04:16:25;3.43;;;2.57;;
15915;SDS011;8057;47.830;-3.870;2024-01-07T04:20:52;4.00;;;3.00;;
15915;SDS011;8057;47.830;-3.870;2024-01-07T04:25:20;3.77;;;2.53;;
15915;SDS011;8057;47.830;-3.870;2024-01-07T04:29:49;2.67;;;2.47;;
15915;SDS011;8057;47.830;-3.870;2024-01-07T04:34:16;3.73;;;2.77;;
15915;SDS011;8057;47.830;-3.870;2024-01-07T04:38:44;4.17;;;3.00;;
15915;SDS011;8057;47.830;-3.870;2024-01-07T04:43:11;5.53;;;2.80;;
15915;SDS011;8057;47.830;-3.870;2024-01-07T04:47:40;3.43;;;2.50;;
15915;SDS011;8057;47.830;-3.870;2024-01-07T04:52:08;3.07;;;2.77;;
15915;SDS011;8057;47.830;-3.870;2024-01-07T04:56:36;5.20;;;3.03;;
15915;SDS011;8057;47.830;-3.870;2024-01-07T05:01:04;4.90;;;2.93;;
15915;SDS011;8057;47.830;-3.870;2024-01-07T05:05:33;6.57;;;2.73;;
15915;SDS011;8057;47.830;-3.870;2024-01-07T05:10:01;4.43;;;2.77;;
15915;SDS011;8057;47.830;-3.870;2024-01-07T05:14:29;2.87;;;2.23;;
15915;SDS011;8057;47.830;-3.870;2024-01-07T05:18:57;4.67;;;2.53;;
15915;SDS011;8057;47.830;-3.870;2024-01-07T05:23:26;2.97;;;2.73;;
15915;SDS011;8057;47.830;-3.870;2024-01-07T05:27:53;3.90;;;2.57;;
15915;SDS011;8057;47.830;-3.870;2024-01-07T05:32:20;3.13;;;2.83;;
15915;SDS011;8057;47.830;-3.870;2024-01-07T05:36:50;5.53;;;2.80;;
15915;SDS011;8057;47.830;-3.870;2024-01-07T05:41:19;4.23;;;2.40;;
15915;SDS011;8057;47.830;-3.870;2024-01-07T05:45:46;4.33;;;2.53;;
15915;SDS011;8057;47.830;-3.870;2024-01-07T05:50:14;6.37;;;2.70;;
15915;SDS011;8057;47.830;-3.870;2024-01-07T05:54:44;5.13;;;2.30;;
15915;SDS011;8057;47.830;-3.870;2024-01-07T05:59:13;5.80;;;2.90;;
15915;SDS011;8057;47.830;-3.870;2024-01-07T06:03:40;5.50;;;3.20;;
15915;SDS011;8057;47.830;-3.870;2024-01-07T06:08:08;6.90;;;3.00;;
15915;SDS011;8057;47.830;-3.870;2024-01-07T06:12:36;3.10;;;2.80;;
15915;SDS011;8057;47.830;-3.870;2024-01-07T06:17:05;3.83;;;3.23;;
15915;SDS011;8057;47.830;-3.870;2024-01-07T06:21:32;5.10;;;2.97;;
15915;SDS011;8057;47.830;-3.870;2024-01-07T06:26:00;5.37;;;3.50;;
15915;SDS011;8057;47.830;-3.870;2024-01-07T06:30:29;8.17;;;3.27;;
15915;SDS011;8057;47.830;-3.870;2024-01-07T06:34:58;5.67;;;3.33;;
15915;SDS011;8057;47.830;-3.870;2024-01-07T06:39:26;9.40;;;3.27;;
15915;SDS011;8057;47.830;-3.870;2024-01-07T06:43:53;6.50;;;2.83;;
15915;SDS011;8057;47.830;-3.870;2024-01-07T06:48:22;3.80;;;2.57;;
15915;SDS011;8057;47.830;-3.870;2024-01-07T06:52:51;2.87;;;2.53;;
15915;SDS011;8057;47.830;-3.870;2024-01-07T06:57:18;4.07;;;2.40;;
15915;SDS011;8057;47.830;-3.870;2024-01-07T07:01:46;6.13;;;2.97;;
15915;SDS011;8057;47.830;-3.870;2024-01-07T07:06:14;5.60;;;2.97;;
15915;SDS011;8057;47.830;-3.870;2024-01-07T07:10:43;4.93;;;2.30;;
15915;SDS011;8057;47.830;-3.870;2024-01-07T07:15:10;3.53;;;2.50;;
15915;SDS011;8057;47.830;-3.870;2024-01-07T07:19:38;4.13;;;2.70;;
15915;SDS011;8057;47.830;-3.870;2024-01-07T07:24:09;4.90;;;2.87;;
15915;SDS011;8057;47.830;-3.870;2024-01-07T07:28:38;4.80;;;3.00;;
15915;SDS011;8057;47.830;-3.870;2024-01-07T07:33:06;6.53;;;3.30;;
15915;SDS011;8057;47.830;-3.870;2024-01-07T07:37:33;4.30;;;3.30;;
15915;SDS011;8057;47.830;-3.870;2024-01-07T07:42:01;4.70;;;2.83;;
15915;SDS011;8057;47.830;-3.870;2024-01-07T07:46:30;4.10;;;3.13;;
15915;SDS011;8057;47.830;-3.870;2024-01-07T07:50:57;3.10;;;2.80;;
15915;SDS011;8057;47.830;-3.870;2024-01-07T07:55:25;6.93;;;3.30;;
15915;SDS011;8057;47.830;-3.870;2024-01-07T07:59:53;3.73;;;2.50;;
15915;SDS011;8057;47.830;-3.870;2024-01-07T08:04:25;3.90;;;2.57;;
15915;SDS011;8057;47.830;-3.870;2024-01-07T08:08:53;4.40;;;2.67;;
15915;SDS011;8057;47.830;-3.870;2024-01-07T08:13:21;5.23;;;2.60;;
15915;SDS011;8057;47.830;-3.870;2024-01-07T08:17:49;5.23;;;3.50;;
15915;SDS011;8057;47.830;-3.870;2024-01-07T08:22:19;4.17;;;2.67;;
15915;SDS011;8057;47.830;-3.870;2024-01-07T08:26:47;3.60;;;3.03;;
15915;SDS011;8057;47.830;-3.870;2024-01-07T08:31:15;5.07;;;3.60;;
15915;SDS011;8057;47.830;-3.870;2024-01-07T08:35:42;6.53;;;3.43;;
15915;SDS011;8057;47.830;-3.870;2024-01-07T08:40:12;4.33;;;2.90;;
15915;SDS011;8057;47.830;-3.870;2024-01-07T08:44:40;2.83;;;2.57;;
15915;SDS011;8057;47.830;-3.870;2024-01-07T08:49:07;2.63;;;2.37;;
15915;SDS011;8057;47.830;-3.870;2024-01-07T08:53:35;3.77;;;2.67;;
15915;SDS011;8057;47.830;-3.870;2024-01-07T08:58:04;3.40;;;2.63;;
15915;SDS011;8057;47.830;-3.870;2024-01-07T09:02:32;5.40;;;3.43;;
15915;SDS011;8057;47.830;-3.870;2024-01-07T09:07:05;4.20;;;3.80;;
15915;SDS011;8057;47.830;-3.870;2024-01-07T09:11:33;4.77;;;3.93;;
15915;SDS011;8057;47.830;-3.870;2024-01-07T09:16:03;4.97;;;3.83;;
15915;SDS011;8057;47.830;-3.870;2024-01-07T09:20:32;5.33;;;3.60;;
15915;SDS011;8057;47.830;-3.870;2024-01-07T09:25:01;3.77;;;3.47;;
15915;SDS011;8057;47.830;-3.870;2024-01-07T09:29:29;6.50;;;4.93;;
15915;SDS011;8057;47.830;-3.870;2024-01-07T09:33:59;5.67;;;3.93;;
15915;SDS011;8057;47.830;-3.870;2024-01-07T09:38:27;4.00;;;3.60;;
15915;SDS011;8057;47.830;-3.870;2024-01-07T09:42:55;4.07;;;3.37;;
15915;SDS011;8057;47.830;-3.870;2024-01-07T09:47:24;4.33;;;3.20;;
15915;SDS011;8057;47.830;-3.870;2024-01-07T09:51:53;3.63;;;3.20;;
15915;SDS011;8057;47.830;-3.870;2024-01-07T09:56:26;4.63;;;3.17;;
15915;SDS011;8057;47.830;-3.870;2024-01-07T10:01:01;3.40;;;3.10;;
15915;SDS011;8057;47.830;-3.870;2024-01-07T10:05:30;3.83;;;3.40;;
15915;SDS011;8057;47.830;-3.870;2024-01-07T10:09:59;3.93;;;3.10;;
15915;SDS011;8057;47.830;-3.870;2024-01-07T10:14:39;4.83;;;2.80;;
15915;SDS011;8057;47.830;-3.870;2024-01-07T10:19:07;2.93;;;2.73;;
15915;SDS011;8057;47.830;-3.870;2024-01-07T10:23:34;3.47;;;3.00;;
15915;SDS011;8057;47.830;-3.870;2024-01-07T10:28:04;3.43;;;2.70;;
15915;SDS011;8057;47.830;-3.870;2024-01-07T10:32:32;3.10;;;2.67;;
15915;SDS011;8057;47.830;-3.870;2024-01-07T10:37:05;5.07;;;3.13;;
15915;SDS011;8057;47.830;-3.870;2024-01-07T10:41:34;3.30;;;2.87;;
15915;SDS011;8057;47.830;-3.870;2024-01-07T10:46:06;3.70;;;2.40;;
15915;SDS011;8057;47.830;-3.870;2024-01-07T10:50:37;4.17;;;2.57;;
15915;SDS011;8057;47.830;-3.870;2024-01-07T10:55:08;3.97;;;2.30;;
15915;SDS011;8057;47.830;-3.870;2024-01-07T10:59:37;3.43;;;2.20;;
15915;SDS011;8057;47.830;-3.870;2024-01-07T11:04:08;4.30;;;2.93;;
15915;SDS011;8057;47.830;-3.870;2024-01-07T11:08:43;4.27;;;2.70;;
15915;SDS011;8057;47.830;-3.870;2024-01-07T11:13:31;4.60;;;2.37;;
15915;SDS011;8057;47.830;-3.870;2024-01-07T11:18:03;3.13;;;1.90;;
15915;SDS011;8057;47.830;-3.870;2024-01-07T11:22:34;3.00;;;1.90;;
15915;SDS011;8057;47.830;-3.870;2024-01-07T11:27:01;3.43;;;2.20;;
15915;SDS011;8057;47.830;-3.870;2024-01-07T11:31:45;2.17;;;1.63;;
15915;SDS011;8057;47.830;-3.870;2024-01-07T11:36:14;5.57;;;1.83;;
15915;SDS011;8057;47.830;-3.870;2024-01-07T11:40:44;2.53;;;1.93;;
15915;SDS011;8057;47.830;-3.870;2024-01-07T11:45:12;3.67;;;2.33;;
15915;SDS011;8057;47.830;-3.870;2024-01-07T11:49:41;2.27;;;1.90;;
15915;SDS011;8057;47.830;-3.870;2024-01-07T11:54:08;2.43;;;1.83;;
15915;SDS011;8057;47.830;-3.870;2024-01-07T11:58:38;2.07;;;1.70;;
15915;SDS011;8057;47.830;-3.870;2024-01-07T12:03:07;3.10;;;1.80;;
15915;SDS011;8057;47.830;-3.870;2024-01-07T12:07:35;2.83;;;2.10;;
15915;SDS011;8057;47.830;-3.870;2024-01-07T12:12:03;2.97;;;2.00;;
15915;SDS011;8057;47.830;-3.870;2024-01-07T12:16:32;6.10;;;1.90;;
15915;SDS011;8057;47.830;-3.870;2024-01-07T12:21:00;2.70;;;1.90;;
15915;SDS011;8057;47.830;-3.870;2024-01-07T12:25:27;2.73;;;1.87;;
15915;SDS011;8057;47.830;-3.870;2024-01-07T12:29:55;3.73;;;2.00;;
15915;SDS011;8057;47.830;-3.870;2024-01-07T12:34:24;3.60;;;1.90;;
15915;SDS011;8057;47.830;-3.870;2024-01-07T12:38:52;4.87;;;2.20;;
15915;SDS011;8057;47.830;-3.870;2024-01-07T12:43:20;2.93;;;2.07;;
15915;SDS011;8057;47.830;-3.870;2024-01-07T12:47:48;2.83;;;2.20;;
15915;SDS011;8057;47.830;-3.870;2024-01-07T12:52:17;4.57;;;2.07;;
15915;SDS011;8057;47.830;-3.870;2024-01-07T12:56:45;5.53;;;2.60;;
15915;SDS011;8057;47.830;-3.870;2024-01-07T13:01:13;3.57;;;2.10;;
15915;SDS011;8057;47.830;-3.870;2024-01-07T13:05:41;3.20;;;2.10;;
15915;SDS011;8057;47.830;-3.870;2024-01-07T13:10:11;2.53;;;2.23;;
15915;SDS011;8057;47.830;-3.870;2024-01-07T13:14:39;2.93;;;2.17;;
15915;SDS011;8057;47.830;-3.870;2024-01-07T13:19:07;3.97;;;2.07;;
15915;SDS011;8057;47.830;-3.870;2024-01-07T13:23:36;3.13;;;2.10;;
15915;SDS011;8057;47.830;-3.870;2024-01-07T13:28:05;2.03;;;1.47;;
15915;SDS011;8057;47.830;-3.870;2024-01-07T13:32:45;3.23;;;2.10;;
15915;SDS011;8057;47.830;-3.870;2024-01-07T13:37:17;3.27;;;1.90;;
15915;SDS011;8057;47.830;-3.870;2024-01-07T13:41:45;2.47;;;1.77;;
15915;SDS011;8057;47.830;-3.870;2024-01-07T13:55:29;2.80;;;1.70;;
15915;SDS011;8057;47.830;-3.870;2024-01-07T13:59:57;2.33;;;1.60;;
15915;SDS011;8057;47.830;-3.870;2024-01-07T14:04:24;1.87;;;1.77;;
15915;SDS011;8057;47.830;-3.870;2024-01-07T14:08:52;1.73;;;1.63;;
15915;SDS011;8057;47.830;-3.870;2024-01-07T14:13:21;1.63;;;1.53;;
15915;SDS011;8057;47.830;-3.870;2024-01-07T14:17:49;3.23;;;2.27;;
15915;SDS011;8057;47.830;-3.870;2024-01-07T14:22:17;2.33;;;1.90;;
15915;SDS011;8057;47.830;-3.870;2024-01-07T14:26:46;1.90;;;1.80;;
15915;SDS011;8057;47.830;-3.870;2024-01-07T14:31:16;4.97;;;1.90;;
15915;SDS011;8057;47.830;-3.870;2024-01-07T14:35:44;3.43;;;2.10;;
15915;SDS011;8057;47.830;-3.870;2024-01-07T14:40:12;2.03;;;1.80;;
15915;SDS011;8057;47.830;-3.870;2024-01-07T14:44:40;3.13;;;1.80;;
15915;SDS011;8057;47.830;-3.870;2024-01-07T14:49:17;1.80;;;1.70;;
15915;SDS011;8057;47.830;-3.870;2024-01-07T14:53:45;3.17;;;1.67;;
15915;SDS011;8057;47.830;-3.870;2024-01-07T14:58:12;1.83;;;1.70;;
15915;SDS011;8057;47.830;-3.870;2024-01-07T15:02:41;1.93;;;1.80;;
15915;SDS011;8057;47.830;-3.870;2024-01-07T15:07:12;2.00;;;1.60;;
15915;SDS011;8057;47.830;-3.870;2024-01-07T15:11:42;2.53;;;2.20;;
15915;SDS011;8057;47.830;-3.870;2024-01-07T15:16:14;3.10;;;1.77;;
15915;SDS011;8057;47.830;-3.870;2024-01-07T15:20:41;2.23;;;1.60;;
15915;SDS011;8057;47.830;-3.870;2024-01-07T15:25:10;2.17;;;1.67;;
15915;SDS011;8057;47.830;-3.870;2024-01-07T15:29:38;3.47;;;2.00;;
15915;SDS011;8057;47.830;-3.870;2024-01-07T15:34:06;1.70;;;1.60;;
15915;SDS011;8057;47.830;-3.870;2024-01-07T15:38:34;3.10;;;1.90;;
15915;SDS011;8057;47.830;-3.870;2024-01-07T15:43:04;2.23;;;1.63;;
15915;SDS011;8057;47.830;-3.870;2024-01-07T15:47:33;2.63;;;2.20;;
15915;SDS011;8057;47.830;-3.870;2024-01-07T15:52:04;3.50;;;2.00;;
15915;SDS011;8057;47.830;-3.870;2024-01-07T15:56:32;3.40;;;2.10;;
15915;SDS011;8057;47.830;-3.870;2024-01-07T16:01:03;2.00;;;1.90;;
15915;SDS011;8057;47.830;-3.870;2024-01-07T16:05:30;2.97;;;2.10;;
15915;SDS011;8057;47.830;-3.870;2024-01-07T16:09:59;3.63;;;2.20;;
15915;SDS011;8057;47.830;-3.870;2024-01-07T16:14:27;4.53;;;1.90;;
15915;SDS011;8057;47.830;-3.870;2024-01-07T16:18:59;3.53;;;1.83;;
15915;SDS011;8057;47.830;-3.870;2024-01-07T16:23:28;1.90;;;1.70;;
15915;SDS011;8057;47.830;-3.870;2024-01-07T16:27:55;4.20;;;2.10;;
15915;SDS011;8057;47.830;-3.870;2024-01-07T16:32:24;2.57;;;2.03;;
15915;SDS011;8057;47.830;-3.870;2024-01-07T16:36:53;2.50;;;2.30;;
15915;SDS011;8057;47.830;-3.870;2024-01-07T16:41:21;3.37;;;2.23;;
15915;SDS011;8057;47.830;-3.870;2024-01-07T16:45:49;2.33;;;2.13;;
15915;SDS011;8057;47.830;-3.870;2024-01-07T16:50:17;3.13;;;2.20;;
15915;SDS011;8057;47.830;-3.870;2024-01-07T16:54:51;2.60;;;2.17;;
15915;SDS011;8057;47.830;-3.870;2024-01-07T16:59:35;5.00;;;1.80;;
15915;SDS011;8057;47.830;-3.870;2024-01-07T17:04:02;2.17;;;1.90;;
15915;SDS011;8057;47.830;-3.870;2024-01-07T17:08:30;3.93;;;2.20;;
15915;SDS011;8057;47.830;-3.870;2024-01-07T17:12:58;4.00;;;2.10;;
15915;SDS011;8057;47.830;-3.870;2024-01-07T17:17:27;3.10;;;2.07;;
15915;SDS011;8057;47.830;-3.870;2024-01-07T17:21:55;2.50;;;2.20;;
15915;SDS011;8057;47.830;-3.870;2024-01-07T17:26:23;3.17;;;2.10;;
15915;SDS011;8057;47.830;-3.870;2024-01-07T17:30:51;3.77;;;2.10;;
15915;SDS011;8057;47.830;-3.870;2024-01-07T17:35:22;2.77;;;1.93;;
15915;SDS011;8057;47.830;-3.870;2024-01-07T17:39:50;2.10;;;1.87;;
15915;SDS011;8057;47.830;-3.870;2024-01-07T17:44:18;3.37;;;2.10;;
15915;SDS011;8057;47.830;-3.870;2024-01-07T17:48:47;2.40;;;1.67;;
15915;SDS011;8057;47.830;-3.870;2024-01-07T17:53:16;2.63;;;2.07;;
15915;SDS011;8057;47.830;-3.870;2024-01-07T17:57:45;2.67;;;2.47;;
15915;SDS011;8057;47.830;-3.870;2024-01-07T18:02:14;4.03;;;2.50;;
15915;SDS011;8057;47.830;-3.870;2024-01-07T18:06:42;3.73;;;2.30;;
15915;SDS011;8057;47.830;-3.870;2024-01-07T18:11:11;5.03;;;2.63;;
15915;SDS011;8057;47.830;-3.870;2024-01-07T18:15:39;5.47;;;2.80;;
15915;SDS011;8057;47.830;-3.870;2024-01-07T18:20:08;2.70;;;2.40;;
15915;SDS011;8057;47.830;-3.870;2024-01-07T18:24:38;5.03;;;2.20;;
15915;SDS011;8057;47.830;-3.870;2024-01-07T18:29:07;4.43;;;2.83;;
15915;SDS011;8057;47.830;-3.870;2024-01-07T18:33:37;2.97;;;2.40;;
15915;SDS011;8057;47.830;-3.870;2024-01-07T18:38:05;2.90;;;2.57;;
15915;SDS011;8057;47.830;-3.870;2024-01-07T18:42:33;4.17;;;2.97;;
15915;SDS011;8057;47.830;-3.870;2024-01-07T18:47:02;4.97;;;2.90;;
15915;SDS011;8057;47.830;-3.870;2024-01-07T18:51:30;5.40;;;3.63;;
15915;SDS011;8057;47.830;-3.870;2024-01-07T18:55:59;4.67;;;3.67;;
15915;SDS011;8057;47.830;-3.870;2024-01-07T19:00:26;4.53;;;3.63;;
15915;SDS011;8057;47.830;-3.870;2024-01-07T19:04:57;7.33;;;4.57;;
15915;SDS011;8057;47.830;-3.870;2024-01-07T19:09:24;7.20;;;5.33;;
15915;SDS011;8057;47.830;-3.870;2024-01-07T19:13:52;6.27;;;5.23;;
15915;SDS011;8057;47.830;-3.870;2024-01-07T19:18:20;6.47;;;4.80;;
15915;SDS011;8057;47.830;-3.870;2024-01-07T19:22:49;4.77;;;4.37;;
15915;SDS011;8057;47.830;-3.870;2024-01-07T19:27:17;4.17;;;3.77;;
15915;SDS011;8057;47.830;-3.870;2024-01-07T19:31:46;4.83;;;4.00;;
15915;SDS011;8057;47.830;-3.870;2024-01-07T19:36:13;6.17;;;3.53;;
15915;SDS011;8057;47.830;-3.870;2024-01-07T19:40:43;5.47;;;3.50;;
15915;SDS011;8057;47.830;-3.870;2024-01-07T19:45:11;5.10;;;2.73;;
15915;SDS011;8057;47.830;-3.870;2024-01-07T19:49:39;3.87;;;3.03;;
15915;SDS011;8057;47.830;-3.870;2024-01-07T19:54:06;3.40;;;3.10;;
15915;SDS011;8057;47.830;-3.870;2024-01-07T19:58:35;5.63;;;3.27;;
15915;SDS011;8057;47.830;-3.870;2024-01-07T20:03:03;4.57;;;3.50;;
15915;SDS011;8057;47.830;-3.870;2024-01-07T20:07:31;4.03;;;3.30;;
15915;SDS011;8057;47.830;-3.870;2024-01-07T20:11:59;4.77;;;3.53;;
15915;SDS011;8057;47.830;-3.870;2024-01-07T20:16:30;4.90;;;3.30;;
15915;SDS011;8057;47.830;-3.870;2024-01-07T20:20:58;5.17;;;3.40;;
15915;SDS011;8057;47.830;-3.870;2024-01-07T20:25:26;5.10;;;3.27;;
15915;SDS011;8057;47.830;-3.870;2024-01-07T20:29:53;5.43;;;3.63;;
15915;SDS011;8057;47.830;-3.870;2024-01-07T20:34:23;4.80;;;3.40;;
15915;SDS011;8057;47.830;-3.870;2024-01-07T20:38:51;3.37;;;2.70;;
15915;SDS011;8057;47.830;-3.870;2024-01-07T20:43:18;4.83;;;2.70;;
15915;SDS011;8057;47.830;-3.870;2024-01-07T20:47:46;4.70;;;2.87;;
15915;SDS011;8057;47.830;-3.870;2024-01-07T20:52:16;4.33;;;2.67;;
15915;SDS011;8057;47.830;-3.870;2024-01-07T20:56:45;5.23;;;2.90;;
15915;SDS011;8057;47.830;-3.870;2024-01-07T21:01:13;3.27;;;2.50;;
15915;SDS011;8057;47.830;-3.870;2024-01-07T21:05:41;4.37;;;2.87;;
15915;SDS011;8057;47.830;-3.870;2024-01-07T21:10:11;3.57;;;2.70;;
15915;SDS011;8057;47.830;-3.870;2024-01-07T21:14:39;4.53;;;3.40;;
15915;SDS011;8057;47.830;-3.870;2024-01-07T21:19:06;6.43;;;4.60;;
15915;SDS011;8057;47.830;-3.870;2024-01-07T21:23:35;6.63;;;4.70;;
15915;SDS011;8057;47.830;-3.870;2024-01-07T21:28:06;7.67;;;4.60;;
15915;SDS011;8057;47.830;-3.870;2024-01-07T21:32:34;5.80;;;4.70;;
15915;SDS011;8057;47.830;-3.870;2024-01-07T21:37:02;6.07;;;4.30;;
15915;SDS011;8057;47.830;-3.870;2024-01-07T21:41:30;6.03;;;3.87;;
15915;SDS011;8057;47.830;-3.870;2024-01-07T21:46:00;4.73;;;4.10;;
15915;SDS011;8057;47.830;-3.870;2024-01-07T21:50:32;5.00;;;4.47;;
15915;SDS011;8057;47.830;-3.870;2024-01-07T21:55:00;5.47;;;4.63;;
15915;SDS011;8057;47.830;-3.870;2024-01-07T21:59:29;6.37;;;5.03;;
15915;SDS011;8057;47.830;-3.870;2024-01-07T22:03:58;5.90;;;5.30;;
15915;SDS011;8057;47.830;-3.870;2024-01-07T22:08:26;6.40;;;4.93;;
15915;SDS011;8057;47.830;-3.870;2024-01-07T22:12:54;4.57;;;3.50;;
15915;SDS011;8057;47.830;-3.870;2024-01-07T22:17:21;4.63;;;3.03;;
15915;SDS011;8057;47.830;-3.870;2024-01-07T22:21:51;4.77;;;4.00;;
15915;SDS011;8057;47.830;-3.870;2024-01-07T22:26:19;5.93;;;4.50;;
15915;SDS011;8057;47.830;-3.870;2024-01-07T22:30:46;8.67;;;5.50;;
15915;SDS011;8057;47.830;-3.870;2024-01-07T22:35:14;8.73;;;5.70;;
15915;SDS011;8057;47.830;-3.870;2024-01-07T22:39:44;6.27;;;5.33;;
15915;SDS011;8057;47.830;-3.870;2024-01-07T22:44:13;6.70;;;4.63;;
15915;SDS011;8057;47.830;-3.870;2024-01-07T22:48:45;6.97;;;4.87;;
15915;SDS011;8057;47.830;-3.870;2024-01-07T22:53:13;6.47;;;4.00;;
15915;SDS011;8057;47.830;-3.870;2024-01-07T22:57:42;4.53;;;3.50;;
15915;SDS011;8057;47.830;-3.870;2024-01-07T23:02:10;7.80;;;3.80;;
15915;SDS011;8057;47.830;-3.870;2024-01-07T23:06:40;6.73;;;3.63;;
15915;SDS011;8057;47.830;-3.870;2024-01-07T23:11:09;7.37;;;4.13;;
15915;SDS011;8057;47.830;-3.870;2024-01-07T23:15:38;4.60;;;3.57;;
15915;SDS011;8057;47.830;-3.870;2024-01-07T23:20:06;5.10;;;3.73;;
15915;SDS011;8057;47.830;-3.870;2024-01-07T23:24:37;4.93;;;4.03;;
15915;SDS011;8057;47.830;-3.870;2024-01-07T23:29:05;6.33;;;4.30;;
15915;SDS011;8057;47.830;-3.870;2024-01-07T23:33:34;4.83;;;4.23;;
15915;SDS011;8057;47.830;-3.870;2024-01-07T23:38:02;5.77;;;3.70;;
15915;SDS011;8057;47.830;-3.870;2024-01-07T23:42:30;4.03;;;3.40;;
15915;SDS011;8057;47.830;-3.870;2024-01-07T23:46:58;4.20;;;3.70;;
15915;SDS011;8057;47.830;-3.870;2024-01-07T23:51:27;7.23;;;3.73;;
15915;SDS011;8057;47.830;-3.870;2024-01-07T23:55:55;4.20;;;3.47;;
